createdAt,value
2019-01-15T00:00:02.046Z,1004.99
2019-01-15T00:01:02.038Z,1005.03
2019-01-15T00:02:02.049Z,1005.00
2019-01-15T00:03:02.014Z,1004.93
2019-01-15T00:04:02.007Z,1005.07
2019-01-15T00:05:02.030Z,1005.08
2019-01-15T00:06:01.976Z,1005.15
2019-01-15T00:07:01.987Z,1005.10
2019-01-15T00:08:01.961Z,1005.07
2019-01-15T00:09:01.954Z,1005.10
2019-01-15T00:10:01.949Z,1005.05
2019-01-15T00:11:01.922Z,1005.10
2019-01-15T00:12:07.818Z,1005.10
2019-01-15T00:13:02.903Z,1005.03
2019-01-15T00:14:01.889Z,1005.03
2019-01-15T00:15:01.880Z,1005.10
2019-01-15T00:16:01.866Z,1005.08
2019-01-15T00:17:01.871Z,1005.07
2019-01-15T00:18:01.856Z,1005.10
2019-01-15T00:19:01.858Z,1005.13
2019-01-15T00:20:01.831Z,1005.21
2019-01-15T00:21:01.824Z,1005.24
2019-01-15T00:22:01.887Z,1005.16
2019-01-15T00:23:01.792Z,1005.24
2019-01-15T00:24:01.778Z,1005.05
2019-01-15T00:25:01.769Z,1005.15
2019-01-15T00:26:01.758Z,1005.13
2019-01-15T00:27:02.678Z,1005.08
2019-01-15T00:28:01.735Z,1005.11
2019-01-15T00:29:01.727Z,1005.03
2019-01-15T00:30:01.721Z,1005.07
2019-01-15T00:31:01.708Z,1005.17
2019-01-15T00:32:01.753Z,1005.18
2019-01-15T00:33:01.746Z,1005.16
2019-01-15T00:34:01.670Z,1005.16
2019-01-15T00:35:01.667Z,1005.10
2019-01-15T00:36:01.650Z,1005.18
2019-01-15T00:37:01.668Z,1005.13
2019-01-15T00:38:01.629Z,1005.17
2019-01-15T00:39:01.646Z,1005.19
2019-01-15T00:40:01.604Z,1005.22
2019-01-15T00:41:01.589Z,1005.17
2019-01-15T00:42:01.588Z,1005.18
2019-01-15T00:43:01.583Z,1005.06
2019-01-15T00:44:01.566Z,1005.12
2019-01-15T00:45:01.548Z,1005.37
2019-01-15T00:46:01.532Z,1005.24
2019-01-15T00:47:01.525Z,1005.27
2019-01-15T00:48:01.533Z,1005.24
2019-01-15T00:49:01.550Z,1005.18
2019-01-15T00:50:01.504Z,1005.18
2019-01-15T00:51:01.476Z,1005.17
2019-01-15T00:52:01.472Z,1005.22
2019-01-15T00:53:01.474Z,1005.34
2019-01-15T00:54:01.442Z,1005.34
2019-01-15T00:55:01.440Z,1005.40
2019-01-15T00:56:01.418Z,1005.37
2019-01-15T00:57:01.411Z,1005.21
2019-01-15T00:58:01.416Z,1005.26
2019-01-15T00:59:01.394Z,1005.28
2019-01-15T01:00:01.385Z,1005.34
2019-01-15T01:01:01.375Z,1005.20
2019-01-15T01:02:01.352Z,1005.30
2019-01-15T01:03:01.363Z,1005.33
2019-01-15T01:04:01.330Z,1005.39
2019-01-15T01:05:01.323Z,1005.24
2019-01-15T01:06:01.310Z,1005.37
2019-01-15T01:07:01.303Z,1005.28
2019-01-15T01:08:01.319Z,1005.31
2019-01-15T01:09:01.274Z,1005.28
2019-01-15T01:10:01.267Z,1005.34
2019-01-15T01:11:01.266Z,1005.29
2019-01-15T01:12:01.273Z,1005.32
2019-01-15T01:13:01.260Z,1005.28
2019-01-15T01:14:01.230Z,1005.33
2019-01-15T01:15:01.216Z,1005.35
2019-01-15T01:16:01.204Z,1005.35
2019-01-15T01:17:01.190Z,1005.37
2019-01-15T01:18:01.208Z,1005.42
2019-01-15T01:19:01.169Z,1005.39
2019-01-15T01:20:01.160Z,1005.34
2019-01-15T01:21:01.148Z,1005.34
2019-01-15T01:22:01.150Z,1005.21
2019-01-15T01:23:01.176Z,1005.33
2019-01-15T01:24:01.117Z,1005.38
2019-01-15T01:25:01.098Z,1005.49
2019-01-15T01:26:01.107Z,1005.50
2019-01-15T01:27:01.079Z,1005.47
2019-01-15T01:28:01.066Z,1005.48
2019-01-15T01:29:01.074Z,1005.54
2019-01-15T01:30:01.046Z,1005.56
2019-01-15T01:31:01.036Z,1005.40
2019-01-15T01:32:01.049Z,1005.44
2019-01-15T01:33:01.012Z,1005.49
2019-01-15T01:34:01.016Z,1005.49
2019-01-15T01:35:01.002Z,1005.54
2019-01-15T01:36:00.980Z,1005.58
2019-01-15T01:37:00.966Z,1005.69
2019-01-15T01:38:00.963Z,1005.56
2019-01-15T01:39:00.975Z,1005.61
2019-01-15T01:40:00.961Z,1005.57
2019-01-15T01:41:00.924Z,1005.55
2019-01-15T01:42:00.909Z,1005.64
2019-01-15T01:43:00.902Z,1005.69
2019-01-15T01:44:00.902Z,1005.66
2019-01-15T01:45:00.878Z,1005.70
2019-01-15T01:46:00.874Z,1005.71
2019-01-15T01:47:00.869Z,1005.78
2019-01-15T01:48:00.842Z,1005.72
2019-01-15T01:49:00.857Z,1005.83
2019-01-15T01:50:00.830Z,1005.82
2019-01-15T01:51:00.808Z,1005.82
2019-01-15T01:52:00.808Z,1005.93
2019-01-15T01:53:00.827Z,1005.85
2019-01-15T01:54:00.822Z,1005.84
2019-01-15T01:55:00.843Z,1005.76
2019-01-15T01:56:00.762Z,1005.83
2019-01-15T01:57:00.747Z,1005.92
2019-01-15T01:58:00.738Z,1005.92
2019-01-15T01:59:00.739Z,1005.83
2019-01-15T02:00:00.712Z,1005.80
2019-01-15T02:01:00.700Z,1005.88
2019-01-15T02:02:00.716Z,1005.94
2019-01-15T02:03:00.675Z,1005.94
2019-01-15T02:04:00.698Z,1005.95
2019-01-15T02:05:00.652Z,1005.88
2019-01-15T02:06:00.650Z,1006.02
2019-01-15T02:07:00.629Z,1005.95
2019-01-15T02:08:00.626Z,1005.94
2019-01-15T02:09:00.627Z,1005.99
2019-01-15T02:10:00.603Z,1005.96
2019-01-15T02:11:00.594Z,1006.00
2019-01-15T02:12:00.574Z,1006.03
2019-01-15T02:13:00.569Z,1006.04
2019-01-15T02:14:00.583Z,1006.08
2019-01-15T02:15:00.549Z,1006.09
2019-01-15T02:16:00.530Z,1006.08
2019-01-15T02:17:00.521Z,1006.06
2019-01-15T02:18:00.509Z,1006.04
2019-01-15T02:19:00.531Z,1006.08
2019-01-15T02:20:00.493Z,1006.11
2019-01-15T02:21:00.484Z,1006.06
2019-01-15T02:22:00.464Z,1006.05
2019-01-15T02:23:00.455Z,1006.13
2019-01-15T02:24:00.448Z,1006.03
2019-01-15T02:25:00.714Z,1006.10
2019-01-15T02:26:00.425Z,1006.01
2019-01-15T02:27:00.424Z,1006.11
2019-01-15T02:28:00.391Z,1006.10
2019-01-15T02:29:00.387Z,1006.03
2019-01-15T02:30:00.401Z,1006.08
2019-01-15T02:31:00.364Z,1006.13
2019-01-15T02:32:00.361Z,1006.06
2019-01-15T02:33:00.355Z,1006.07
2019-01-15T02:34:00.337Z,1006.14
2019-01-15T02:35:00.339Z,1006.10
2019-01-15T02:36:00.314Z,1006.10
2019-01-15T02:37:00.293Z,1006.09
2019-01-15T02:38:00.293Z,1006.08
2019-01-15T02:39:00.301Z,1006.11
2019-01-15T02:40:00.338Z,1006.19
2019-01-15T02:41:00.257Z,1006.20
2019-01-15T02:42:00.255Z,1006.23
2019-01-15T02:43:00.241Z,1006.23
2019-01-15T02:44:00.229Z,1006.27
2019-01-15T02:45:00.253Z,1006.18
2019-01-15T02:46:00.198Z,1006.11
2019-01-15T02:47:00.195Z,1006.15
2019-01-15T02:48:00.173Z,1006.23
2019-01-15T02:49:00.170Z,1006.29
2019-01-15T02:50:00.208Z,1006.32
2019-01-15T02:51:00.156Z,1006.29
2019-01-15T02:52:00.130Z,1006.26
2019-01-15T02:53:00.121Z,1006.26
2019-01-15T02:54:00.109Z,1006.24
2019-01-15T02:55:00.217Z,1006.38
2019-01-15T02:56:00.090Z,1006.35
2019-01-15T02:57:00.075Z,1006.34
2019-01-15T02:58:00.075Z,1006.46
2019-01-15T02:59:00.077Z,1006.43
2019-01-15T03:00:00.247Z,1006.37
2019-01-15T03:01:00.034Z,1006.36
2019-01-15T03:02:00.020Z,1006.34
2019-01-15T03:03:00.010Z,1006.36
2019-01-15T03:03:59.995Z,1006.36
2019-01-15T03:05:00.016Z,1006.23
2019-01-15T03:05:59.972Z,1006.21
2019-01-15T03:06:59.980Z,1006.19
2019-01-15T03:07:59.968Z,1006.26
2019-01-15T03:08:59.938Z,1006.28
2019-01-15T03:09:59.946Z,1006.24
2019-01-15T03:10:59.914Z,1006.42
2019-01-15T03:11:59.915Z,1006.27
2019-01-15T03:12:59.916Z,1006.24
2019-01-15T03:13:59.885Z,1006.27
2019-01-15T03:14:59.888Z,1006.39
2019-01-15T03:15:59.870Z,1006.24
2019-01-15T03:16:59.851Z,1006.33
2019-01-15T03:17:59.847Z,1006.28
2019-01-15T03:18:59.865Z,1006.38
2019-01-15T03:19:59.860Z,1006.36
2019-01-15T03:20:59.807Z,1006.41
2019-01-15T03:21:59.816Z,1006.32
2019-01-15T03:22:59.787Z,1006.37
2019-01-15T03:23:59.786Z,1006.38
2019-01-15T03:24:59.797Z,1006.36
2019-01-15T03:25:59.773Z,1006.31
2019-01-15T03:26:59.743Z,1006.32
2019-01-15T03:27:59.778Z,1006.25
2019-01-15T03:28:59.726Z,1006.33
2019-01-15T03:29:59.723Z,1006.34
2019-01-15T03:30:59.735Z,1006.31
2019-01-15T03:31:59.687Z,1006.41
2019-01-15T03:32:59.677Z,1006.29
2019-01-15T03:33:59.666Z,1006.34
2019-01-15T03:34:59.663Z,1006.33
2019-01-15T03:35:59.669Z,1006.24
2019-01-15T03:36:59.628Z,1006.15
2019-01-15T03:37:59.618Z,1006.30
2019-01-15T03:38:59.608Z,1006.29
2019-01-15T03:39:59.595Z,1006.24
2019-01-15T03:40:59.605Z,1006.27
2019-01-15T03:41:59.571Z,1006.33
2019-01-15T03:43:03.776Z,1006.28
2019-01-15T03:43:59.553Z,1006.33
2019-01-15T03:44:59.549Z,1006.30
2019-01-15T03:46:04.138Z,1006.25
2019-01-15T03:47:00.520Z,1006.32
2019-01-15T03:47:59.506Z,1006.40
2019-01-15T03:48:59.500Z,1006.23
2019-01-15T03:49:59.493Z,1006.31
2019-01-15T03:50:59.495Z,1006.25
2019-01-15T03:51:59.478Z,1006.33
2019-01-15T03:52:59.459Z,1006.36
2019-01-15T03:53:59.444Z,1006.27
2019-01-15T03:54:59.435Z,1006.35
2019-01-15T03:55:59.462Z,1006.35
2019-01-15T03:56:59.407Z,1006.33
2019-01-15T03:57:59.400Z,1006.32
2019-01-15T03:58:59.451Z,1006.39
2019-01-15T03:59:59.377Z,1006.36
2019-01-15T04:00:59.386Z,1006.27
2019-01-15T04:01:59.359Z,1006.38
2019-01-15T04:02:59.347Z,1006.35
2019-01-15T04:03:59.340Z,1006.35
2019-01-15T04:04:59.320Z,1006.42
2019-01-15T04:05:59.333Z,1006.44
2019-01-15T04:06:59.303Z,1006.38
2019-01-15T04:07:59.295Z,1006.40
2019-01-15T04:08:59.281Z,1006.38
2019-01-15T04:09:59.279Z,1006.41
2019-01-15T04:10:59.275Z,1006.34
2019-01-15T04:11:59.244Z,1006.34
2019-01-15T04:12:59.231Z,1006.48
2019-01-15T04:13:59.223Z,1006.38
2019-01-15T04:14:59.214Z,1006.46
2019-01-15T04:15:59.243Z,1006.49
2019-01-15T04:16:59.191Z,1006.50
2019-01-15T04:17:59.178Z,1006.51
2019-01-15T04:18:59.169Z,1006.50
2019-01-15T04:19:59.155Z,1006.61
2019-01-15T04:20:59.149Z,1006.53
2019-01-15T04:21:59.155Z,1006.54
2019-01-15T04:22:59.126Z,1006.55
2019-01-15T04:23:59.112Z,1006.57
2019-01-15T04:24:59.098Z,1006.56
2019-01-15T04:25:59.089Z,1006.60
2019-01-15T04:26:59.095Z,1006.62
2019-01-15T04:27:59.074Z,1006.65
2019-01-15T04:28:59.063Z,1006.57
2019-01-15T04:29:59.046Z,1006.62
2019-01-15T04:30:59.043Z,1006.59
2019-01-15T04:31:59.047Z,1006.60
2019-01-15T04:32:59.018Z,1006.68
2019-01-15T04:33:58.996Z,1006.59
2019-01-15T04:34:58.990Z,1006.58
2019-01-15T04:35:58.978Z,1006.65
2019-01-15T04:36:58.989Z,1006.58
2019-01-15T04:37:58.963Z,1006.62
2019-01-15T04:38:58.942Z,1006.65
2019-01-15T04:39:58.934Z,1006.59
2019-01-15T04:40:58.921Z,1006.67
2019-01-15T04:41:58.935Z,1006.60
2019-01-15T04:42:58.902Z,1006.55
2019-01-15T04:43:58.902Z,1006.50
2019-01-15T04:44:58.875Z,1006.45
2019-01-15T04:45:58.870Z,1006.43
2019-01-15T04:46:58.873Z,1006.55
2019-01-15T04:47:58.851Z,1006.50
2019-01-15T04:48:58.830Z,1006.46
2019-01-15T04:49:58.821Z,1006.39
2019-01-15T04:50:58.817Z,1006.40
2019-01-15T04:51:58.831Z,1006.37
2019-01-15T04:52:58.793Z,1006.34
2019-01-15T04:53:58.781Z,1006.37
2019-01-15T04:54:58.763Z,1006.19
2019-01-15T04:55:58.757Z,1006.35
2019-01-15T04:56:58.740Z,1006.33
2019-01-15T04:57:58.750Z,1006.39
2019-01-15T04:58:58.719Z,1006.33
2019-01-15T04:59:58.710Z,1006.31
2019-01-15T05:00:58.697Z,1006.32
2019-01-15T05:01:58.690Z,1006.29
2019-01-15T05:02:58.694Z,1006.31
2019-01-15T05:03:58.666Z,1006.26
2019-01-15T05:04:58.664Z,1006.22
2019-01-15T05:05:58.645Z,1006.27
2019-01-15T05:06:58.636Z,1006.25
2019-01-15T05:07:58.643Z,1006.25
2019-01-15T05:08:58.613Z,1006.24
2019-01-15T05:09:58.601Z,1006.18
2019-01-15T05:10:58.590Z,1006.18
2019-01-15T05:11:58.580Z,1006.23
2019-01-15T05:12:58.591Z,1006.19
2019-01-15T05:13:58.555Z,1006.19
2019-01-15T05:14:58.554Z,1006.27
2019-01-15T05:15:58.534Z,1006.22
2019-01-15T05:16:58.541Z,1006.23
2019-01-15T05:17:58.532Z,1006.19
2019-01-15T05:18:58.515Z,1006.24
2019-01-15T05:19:58.488Z,1006.19
2019-01-15T05:20:58.477Z,1006.18
2019-01-15T05:21:58.465Z,1006.20
2019-01-15T05:22:58.473Z,1006.16
2019-01-15T05:23:58.456Z,1006.25
2019-01-15T05:24:58.433Z,1006.20
2019-01-15T05:25:58.426Z,1006.22
2019-01-15T05:26:58.416Z,1006.18
2019-01-15T05:27:58.425Z,1006.18
2019-01-15T05:28:58.394Z,1006.30
2019-01-15T05:29:58.388Z,1006.23
2019-01-15T05:30:58.374Z,1006.18
2019-01-15T05:31:58.362Z,1006.23
2019-01-15T05:32:58.380Z,1006.20
2019-01-15T05:33:58.332Z,1006.25
2019-01-15T05:34:58.328Z,1006.25
2019-01-15T05:35:58.315Z,1006.21
2019-01-15T05:36:58.300Z,1006.19
2019-01-15T05:37:58.291Z,1006.21
2019-01-15T05:38:58.735Z,1006.21
2019-01-15T05:39:58.273Z,1006.25
2019-01-15T05:40:58.258Z,1006.24
2019-01-15T05:41:58.245Z,1006.13
2019-01-15T05:42:58.240Z,1006.23
2019-01-15T05:43:58.252Z,1006.24
2019-01-15T05:44:58.209Z,1006.19
2019-01-15T05:45:58.203Z,1006.21
2019-01-15T05:46:58.203Z,1006.23
2019-01-15T05:47:58.175Z,1006.31
2019-01-15T05:48:58.187Z,1006.33
2019-01-15T05:49:58.159Z,1006.34
2019-01-15T05:50:58.153Z,1006.32
2019-01-15T05:51:58.139Z,1006.30
2019-01-15T05:52:58.135Z,1006.30
2019-01-15T05:53:58.143Z,1006.36
2019-01-15T05:54:58.101Z,1006.27
2019-01-15T05:55:58.097Z,1006.26
2019-01-15T05:56:58.075Z,1006.22
2019-01-15T05:57:58.071Z,1006.19
2019-01-15T05:58:58.077Z,1006.24
2019-01-15T05:59:58.047Z,1006.28
2019-01-15T06:00:58.045Z,1006.16
2019-01-15T06:01:58.020Z,1006.11
2019-01-15T06:02:58.034Z,1006.12
2019-01-15T06:03:58.018Z,1006.23
2019-01-15T06:04:57.991Z,1006.26
2019-01-15T06:05:57.987Z,1006.26
2019-01-15T06:06:57.972Z,1006.23
2019-01-15T06:07:57.957Z,1006.29
2019-01-15T06:08:57.961Z,1006.20
2019-01-15T06:09:57.934Z,1006.21
2019-01-15T06:10:57.920Z,1006.20
2019-01-15T06:11:57.917Z,1006.24
2019-01-15T06:12:57.902Z,1006.27
2019-01-15T06:13:57.912Z,1006.22
2019-01-15T06:14:57.881Z,1006.16
2019-01-15T06:15:57.876Z,1006.17
2019-01-15T06:16:57.858Z,1006.19
2019-01-15T06:17:57.852Z,1006.30
2019-01-15T06:18:57.865Z,1006.12
2019-01-15T06:19:57.828Z,1006.00
2019-01-15T06:20:57.816Z,1006.14
2019-01-15T06:21:57.800Z,1006.05
2019-01-15T06:22:57.792Z,1006.07
2019-01-15T06:23:57.786Z,1006.07
2019-01-15T06:24:57.796Z,1006.02
2019-01-15T06:25:57.756Z,1006.02
2019-01-15T06:26:57.760Z,1006.01
2019-01-15T06:27:57.736Z,1006.04
2019-01-15T06:28:57.721Z,1005.87
2019-01-15T06:29:57.762Z,1005.98
2019-01-15T06:30:57.704Z,1006.05
2019-01-15T06:31:57.688Z,1005.98
2019-01-15T06:32:57.686Z,1006.03
2019-01-15T06:33:57.686Z,1006.11
2019-01-15T06:34:57.674Z,1006.07
2019-01-15T06:35:57.656Z,1005.90
2019-01-15T06:36:57.694Z,1006.04
2019-01-15T06:37:57.626Z,1005.98
2019-01-15T06:38:57.620Z,1006.05
2019-01-15T06:39:57.630Z,1006.11
2019-01-15T06:40:57.592Z,1006.14
2019-01-15T06:41:57.574Z,1005.99
2019-01-15T06:42:57.567Z,1005.90
2019-01-15T06:43:57.566Z,1006.01
2019-01-15T06:44:57.572Z,1006.06
2019-01-15T06:45:57.532Z,1006.13
2019-01-15T06:46:57.523Z,1006.19
2019-01-15T06:47:57.508Z,1006.14
2019-01-15T06:48:57.502Z,1006.13
2019-01-15T06:49:57.519Z,1006.18
2019-01-15T06:50:57.478Z,1006.15
2019-01-15T06:51:57.471Z,1006.14
2019-01-15T06:52:57.460Z,1006.21
2019-01-15T06:53:57.452Z,1006.12
2019-01-15T06:54:57.473Z,1006.09
2019-01-15T06:55:57.433Z,1006.10
2019-01-15T06:56:57.412Z,1006.10
2019-01-15T06:57:57.403Z,1006.15
2019-01-15T06:58:57.404Z,1006.08
2019-01-15T06:59:57.405Z,1006.06
2019-01-15T07:00:57.380Z,1006.14
2019-01-15T07:01:57.368Z,1006.13
2019-01-15T07:02:57.347Z,1006.22
2019-01-15T07:03:57.335Z,1006.14
2019-01-15T07:04:57.354Z,1006.16
2019-01-15T07:05:57.314Z,1006.05
2019-01-15T07:06:57.308Z,1006.08
2019-01-15T07:07:57.291Z,1006.14
2019-01-15T07:08:57.283Z,1006.04
2019-01-15T07:09:57.315Z,1006.07
2019-01-15T07:10:57.259Z,1006.01
2019-01-15T07:11:57.245Z,1005.99
2019-01-15T07:12:57.246Z,1006.20
2019-01-15T07:13:57.335Z,1006.03
2019-01-15T07:14:57.212Z,1006.10
2019-01-15T07:15:57.224Z,1006.08
2019-01-15T07:16:57.206Z,1006.21
2019-01-15T07:17:57.176Z,1006.08
2019-01-15T07:18:57.174Z,1005.96
2019-01-15T07:19:57.156Z,1005.97
2019-01-15T07:20:57.454Z,1006.04
2019-01-15T07:21:57.138Z,1006.08
2019-01-15T07:22:57.120Z,1006.01
2019-01-15T07:23:57.120Z,1005.90
2019-01-15T07:24:57.108Z,1005.89
2019-01-15T07:25:57.109Z,1005.95
2019-01-15T07:26:57.082Z,1005.91
2019-01-15T07:27:57.075Z,1005.93
2019-01-15T07:28:57.058Z,1005.93
2019-01-15T07:29:57.052Z,1005.92
2019-01-15T07:30:57.066Z,1005.91
2019-01-15T07:31:57.024Z,1005.92
2019-01-15T07:32:57.017Z,1005.98
2019-01-15T07:33:57.009Z,1005.86
2019-01-15T07:34:56.991Z,1005.88
2019-01-15T07:35:56.995Z,1005.90
2019-01-15T07:36:56.975Z,1005.80
2019-01-15T07:37:56.969Z,1005.86
2019-01-15T07:38:56.951Z,1005.76
2019-01-15T07:39:56.934Z,1005.98
2019-01-15T07:40:56.946Z,1005.86
2019-01-15T07:41:56.914Z,1006.09
2019-01-15T07:42:56.901Z,1005.88
2019-01-15T07:44:04.165Z,1006.08
2019-01-15T07:44:57.880Z,1005.91
2019-01-15T07:45:56.866Z,1005.90
2019-01-15T07:46:56.882Z,1006.09
2019-01-15T07:47:56.844Z,1005.86
2019-01-15T07:48:56.835Z,1005.91
2019-01-15T07:49:56.824Z,1005.89
2019-01-15T07:50:56.818Z,1005.87
2019-01-15T07:51:56.818Z,1005.81
2019-01-15T07:52:56.794Z,1005.84
2019-01-15T07:53:56.779Z,1005.90
2019-01-15T07:54:56.768Z,1005.80
2019-01-15T07:55:56.759Z,1005.82
2019-01-15T07:56:56.770Z,1005.88
2019-01-15T07:57:57.795Z,1005.80
2019-01-15T07:58:56.729Z,1005.84
2019-01-15T07:59:56.713Z,1005.75
2019-01-15T08:00:56.699Z,1005.79
2019-01-15T08:01:56.714Z,1005.81
2019-01-15T08:02:56.679Z,1005.83
2019-01-15T08:03:56.671Z,1005.97
2019-01-15T08:04:56.664Z,1005.82
2019-01-15T08:05:56.653Z,1005.88
2019-01-15T08:06:56.657Z,1005.90
2019-01-15T08:07:56.627Z,1005.97
2019-01-15T08:08:56.610Z,1005.96
2019-01-15T08:09:56.608Z,1005.99
2019-01-15T08:10:57.179Z,1005.87
2019-01-15T08:11:56.581Z,1006.10
2019-01-15T08:12:56.586Z,1006.04
2019-01-15T08:13:56.558Z,1006.06
2019-01-15T08:14:56.546Z,1006.05
2019-01-15T08:15:56.599Z,1006.09
2019-01-15T08:16:56.543Z,1006.05
2019-01-15T08:17:56.521Z,1006.08
2019-01-15T08:18:56.500Z,1006.18
2019-01-15T08:19:56.505Z,1006.02
2019-01-15T08:20:56.488Z,1006.03
2019-01-15T08:21:56.500Z,1006.02
2019-01-15T08:22:56.462Z,1006.00
2019-01-15T08:23:56.446Z,1006.12
2019-01-15T08:24:56.435Z,1006.12
2019-01-15T08:25:56.424Z,1006.05
2019-01-15T08:26:56.448Z,1005.98
2019-01-15T08:27:56.400Z,1006.01
2019-01-15T08:28:56.405Z,1005.97
2019-01-15T08:29:56.389Z,1006.01
2019-01-15T08:30:56.371Z,1006.02
2019-01-15T08:31:56.352Z,1005.95
2019-01-15T08:32:56.367Z,1005.96
2019-01-15T08:33:56.338Z,1006.03
2019-01-15T08:34:56.326Z,1005.96
2019-01-15T08:35:56.312Z,1005.94
2019-01-15T08:36:56.310Z,1005.95
2019-01-15T08:37:56.317Z,1005.97
2019-01-15T08:38:56.286Z,1005.95
2019-01-15T08:39:56.270Z,1005.96
2019-01-15T08:40:56.260Z,1005.95
2019-01-15T08:41:56.244Z,1005.98
2019-01-15T08:42:56.252Z,1005.90
2019-01-15T08:43:56.224Z,1005.89
2019-01-15T08:44:56.217Z,1005.88
2019-01-15T08:45:56.201Z,1005.82
2019-01-15T08:46:56.191Z,1005.82
2019-01-15T08:47:56.202Z,1005.85
2019-01-15T08:48:56.196Z,1005.86
2019-01-15T08:49:56.155Z,1005.84
2019-01-15T08:50:56.144Z,1005.93
2019-01-15T08:51:56.688Z,1005.82
2019-01-15T08:52:56.147Z,1005.85
2019-01-15T08:53:56.110Z,1005.85
2019-01-15T08:54:56.100Z,1005.86
2019-01-15T08:55:56.092Z,1005.84
2019-01-15T08:56:56.080Z,1005.82
2019-01-15T08:57:56.090Z,1005.81
2019-01-15T08:58:56.056Z,1005.79
2019-01-15T08:59:56.051Z,1005.84
2019-01-15T09:00:56.031Z,1005.86
2019-01-15T09:01:56.030Z,1005.88
2019-01-15T09:02:56.037Z,1005.87
2019-01-15T09:03:56.004Z,1005.84
2019-01-15T09:04:55.991Z,1005.83
2019-01-15T09:05:55.977Z,1006.00
2019-01-15T09:06:55.971Z,1005.89
2019-01-15T09:07:55.982Z,1005.82
2019-01-15T09:08:55.972Z,1005.83
2019-01-15T09:09:55.932Z,1005.83
2019-01-15T09:10:55.921Z,1005.80
2019-01-15T09:11:55.913Z,1005.77
2019-01-15T09:12:55.900Z,1005.89
2019-01-15T09:13:55.915Z,1005.83
2019-01-15T09:14:56.817Z,1005.81
2019-01-15T09:15:55.868Z,1005.83
2019-01-15T09:16:55.856Z,1005.87
2019-01-15T09:17:55.842Z,1005.86
2019-01-15T09:18:55.852Z,1005.91
2019-01-15T09:19:55.818Z,1005.97
2019-01-15T09:20:55.819Z,1005.85
2019-01-15T09:21:55.798Z,1005.91
2019-01-15T09:22:55.790Z,1005.92
2019-01-15T09:23:55.790Z,1005.97
2019-01-15T09:24:55.776Z,1005.98
2019-01-15T09:25:55.751Z,1006.01
2019-01-15T09:26:55.746Z,1005.91
2019-01-15T09:27:55.743Z,1006.03
2019-01-15T09:28:55.735Z,1006.07
2019-01-15T09:29:55.716Z,1006.03
2019-01-15T09:30:55.701Z,1006.24
2019-01-15T09:31:55.691Z,1006.01
2019-01-15T09:32:55.680Z,1005.97
2019-01-15T09:33:55.683Z,1006.13
2019-01-15T09:34:55.655Z,1006.12
2019-01-15T09:35:55.642Z,1006.15
2019-01-15T09:36:55.650Z,1006.14
2019-01-15T09:37:55.620Z,1006.06
2019-01-15T09:38:55.624Z,1006.06
2019-01-15T09:39:55.602Z,1006.09
2019-01-15T09:40:55.590Z,1006.15
2019-01-15T09:41:55.585Z,1006.09
2019-01-15T09:42:55.560Z,1006.10
2019-01-15T09:43:55.594Z,1006.13
2019-01-15T09:44:55.542Z,1006.08
2019-01-15T09:45:55.529Z,1006.00
2019-01-15T09:46:55.556Z,1006.11
2019-01-15T09:47:55.525Z,1006.10
2019-01-15T09:48:55.512Z,1006.01
2019-01-15T09:49:55.503Z,1005.97
2019-01-15T09:50:55.473Z,1006.06
2019-01-15T09:51:55.464Z,1006.10
2019-01-15T09:52:55.466Z,1006.05
2019-01-15T09:53:55.475Z,1006.13
2019-01-15T09:54:55.432Z,1006.11
2019-01-15T09:55:55.444Z,1006.13
2019-01-15T09:56:55.411Z,1006.11
2019-01-15T09:57:55.400Z,1006.14
2019-01-15T09:58:55.398Z,1006.05
2019-01-15T09:59:55.397Z,1006.10
2019-01-15T10:00:55.370Z,1006.03
2019-01-15T10:01:55.356Z,1006.13
2019-01-15T10:02:55.340Z,1005.96
2019-01-15T10:03:55.335Z,1006.06
2019-01-15T10:04:55.339Z,1006.04
2019-01-15T10:05:55.859Z,1006.00
2019-01-15T10:06:55.314Z,1005.96
2019-01-15T10:07:55.282Z,1006.05
2019-01-15T10:08:55.270Z,1005.98
2019-01-15T10:09:55.279Z,1006.08
2019-01-15T10:10:55.255Z,1006.05
2019-01-15T10:11:55.253Z,1006.02
2019-01-15T10:12:55.230Z,1006.07
2019-01-15T10:13:55.222Z,1006.06
2019-01-15T10:14:55.255Z,1005.98
2019-01-15T10:15:55.201Z,1005.98
2019-01-15T10:16:55.196Z,1005.99
2019-01-15T10:17:55.173Z,1005.85
2019-01-15T10:18:55.159Z,1005.96
2019-01-15T10:19:55.165Z,1005.91
2019-01-15T10:20:55.142Z,1005.88
2019-01-15T10:21:55.134Z,1005.80
2019-01-15T10:22:55.120Z,1005.88
2019-01-15T10:23:55.104Z,1005.96
2019-01-15T10:24:55.161Z,1005.86
2019-01-15T10:25:55.083Z,1005.81
2019-01-15T10:26:55.070Z,1005.84
2019-01-15T10:27:55.068Z,1005.82
2019-01-15T10:28:55.048Z,1005.78
2019-01-15T10:29:59.090Z,1005.84
2019-01-15T10:30:55.027Z,1005.79
2019-01-15T10:31:55.014Z,1005.77
2019-01-15T10:32:55.007Z,1005.79
2019-01-15T10:33:54.990Z,1005.78
2019-01-15T10:34:55.019Z,1005.75
2019-01-15T10:35:54.971Z,1005.79
2019-01-15T10:36:54.957Z,1005.80
2019-01-15T10:37:54.948Z,1005.73
2019-01-15T10:38:54.944Z,1005.74
2019-01-15T10:39:54.984Z,1005.81
2019-01-15T10:40:54.934Z,1005.76
2019-01-15T10:41:54.900Z,1005.75
2019-01-15T10:42:54.950Z,1005.72
2019-01-15T10:43:54.886Z,1005.77
2019-01-15T10:44:54.886Z,1005.70
2019-01-15T10:45:54.878Z,1005.73
2019-01-15T10:46:54.854Z,1005.66
2019-01-15T10:47:54.836Z,1005.70
2019-01-15T10:48:54.832Z,1005.66
2019-01-15T10:49:54.822Z,1005.66
2019-01-15T10:50:54.826Z,1005.63
2019-01-15T10:51:54.792Z,1005.69
2019-01-15T10:52:54.785Z,1005.76
2019-01-15T10:53:54.778Z,1005.70
2019-01-15T10:54:54.759Z,1005.62
2019-01-15T10:55:54.763Z,1005.64
2019-01-15T10:56:54.737Z,1005.61
2019-01-15T10:57:54.724Z,1005.61
2019-01-15T10:58:54.718Z,1005.58
2019-01-15T10:59:54.705Z,1005.61
2019-01-15T11:00:54.768Z,1005.64
2019-01-15T11:01:54.692Z,1005.58
2019-01-15T11:02:54.669Z,1005.55
2019-01-15T11:03:54.662Z,1005.60
2019-01-15T11:04:54.645Z,1005.57
2019-01-15T11:05:54.774Z,1005.58
2019-01-15T11:06:54.638Z,1005.63
2019-01-15T11:07:54.614Z,1005.74
2019-01-15T11:08:54.602Z,1005.57
2019-01-15T11:09:54.595Z,1005.54
2019-01-15T11:10:54.598Z,1005.52
2019-01-15T11:11:54.565Z,1005.57
2019-01-15T11:12:54.566Z,1005.59
2019-01-15T11:13:54.549Z,1005.68
2019-01-15T11:14:56.229Z,1005.55
2019-01-15T11:15:54.540Z,1005.57
2019-01-15T11:16:54.507Z,1005.58
2019-01-15T11:17:54.503Z,1005.55
2019-01-15T11:18:54.501Z,1005.57
2019-01-15T11:19:54.478Z,1005.58
2019-01-15T11:20:54.490Z,1005.62
2019-01-15T11:21:54.473Z,1005.62
2019-01-15T11:22:54.444Z,1005.67
2019-01-15T11:23:54.439Z,1005.62
2019-01-15T11:24:54.434Z,1005.62
2019-01-15T11:25:54.413Z,1005.57
2019-01-15T11:26:54.428Z,1005.55
2019-01-15T11:27:54.389Z,1005.56
2019-01-15T11:28:54.380Z,1005.54
2019-01-15T11:29:54.381Z,1005.55
2019-01-15T11:30:54.354Z,1005.49
2019-01-15T11:31:54.363Z,1005.63
2019-01-15T11:32:54.335Z,1005.51
2019-01-15T11:33:54.331Z,1005.55
2019-01-15T11:34:54.317Z,1005.46
2019-01-15T11:35:54.320Z,1005.45
2019-01-15T11:36:54.323Z,1005.44
2019-01-15T11:37:54.280Z,1005.42
2019-01-15T11:38:54.282Z,1005.40
2019-01-15T11:39:54.260Z,1005.40
2019-01-15T11:40:54.247Z,1005.33
2019-01-15T11:41:54.261Z,1005.40
2019-01-15T11:42:54.226Z,1005.43
2019-01-15T11:43:54.213Z,1005.42
2019-01-15T11:44:54.201Z,1005.38
2019-01-15T11:45:54.190Z,1005.35
2019-01-15T11:46:54.199Z,1005.36
2019-01-15T11:47:54.171Z,1005.33
2019-01-15T11:48:54.164Z,1005.34
2019-01-15T11:49:54.151Z,1005.35
2019-01-15T11:50:54.134Z,1005.30
2019-01-15T11:51:54.165Z,1005.33
2019-01-15T11:52:54.120Z,1005.27
2019-01-15T11:53:54.104Z,1005.25
2019-01-15T11:54:54.096Z,1005.24
2019-01-15T11:55:54.076Z,1005.26
2019-01-15T11:56:54.098Z,1005.17
2019-01-15T11:57:54.056Z,1005.16
2019-01-15T11:58:54.052Z,1005.23
2019-01-15T11:59:54.037Z,1005.16
2019-01-15T12:00:54.029Z,1005.21
2019-01-15T12:01:54.039Z,1005.15
2019-01-15T12:02:54.016Z,1005.23
2019-01-15T12:03:53.990Z,1005.18
2019-01-15T12:04:53.978Z,1005.13